Time;durP1;ratioP1;P1;durP2;ratioP2;P2;SDS_P1;SDS_P2;PMS_P1;PMS_P2;Temp;Humidity;BMP_temperature;BMP_pressure;BME280_temperature;BME280_humidity;BME280_pressure;Samples;Min_cycle;Max_cycle;Signal;HPM_P1;HPM_P2
2023/01/08 00:01:19;;;;;;;38.10;34.60;;;;;;;3.74;95.97;97846.22;103530;1302;23886;-87
2023/01/08 00:03:48;;;;;;;36.50;33.00;;;;;;;3.78;96.24;97845.08;103627;1307;22479;-89
2023/01/08 00:06:20;;;;;;;37.90;34.40;;;;;;;3.81;96.33;97841.89;103675;1306;22480;-90
2023/01/08 00:08:48;;;;;;;36.00;32.60;;;;;;;3.84;96.07;97841.33;103736;1297;22498;-87
2023/01/08 00:11:16;;;;;;;37.40;34.20;;;;;;;3.87;96.21;97839.86;103599;1313;25283;-89
2023/01/08 00:13:45;;;;;;;37.20;33.90;;;;;;;3.86;96.13;97835.91;103781;1307;23386;-89
2023/01/08 00:16:15;;;;;;;39.90;36.30;;;;;;;3.84;96.21;97832.16;103521;1307;25310;-88
2023/01/08 00:18:45;;;;;;;35.20;32.00;;;;;;;3.84;96.20;97830.35;103441;1301;23873;-88
2023/01/08 00:21:13;;;;;;;37.90;34.40;;;;;;;3.85;95.97;97829.94;103523;1307;25373;-87
2023/01/08 00:23:41;;;;;;;36.20;33.00;;;;;;;3.87;95.94;97827.33;103514;1312;23228;-90
2023/01/08 00:26:10;;;;;;;37.10;33.80;;;;;;;3.90;96.20;97829.48;103838;1307;22887;-90
2023/01/08 00:28:39;;;;;;;39.40;36.00;;;;;;;3.89;95.97;97830.45;103650;1307;23357;-85
2023/01/08 00:31:09;;;;;;;39.60;36.00;;;;;;;3.88;95.86;97829.53;103428;1307;23908;-85
2023/01/08 00:33:39;;;;;;;39.30;35.60;;;;;;;3.84;96.01;97824.44;103411;1307;22462;-85
2023/01/08 00:36:10;;;;;;;39.00;35.30;;;;;;;3.83;95.89;97823.79;103497;1310;22664;-85
2023/01/08 00:38:38;;;;;;;37.90;34.30;;;;;;;3.81;95.34;97826.44;103420;1312;22448;-87
2023/01/08 00:41:06;;;;;;;39.80;36.10;;;;;;;3.80;95.75;97822.70;103666;1307;22478;-86
2023/01/08 00:43:35;;;;;;;38.60;34.90;;;;;;;3.76;96.06;97820.54;103536;1311;22536;-85
2023/01/08 00:46:04;;;;;;;42.20;38.20;;;;;;;3.69;95.75;97812.08;103527;1312;22491;-86
2023/01/08 00:48:36;;;;;;;40.50;36.70;;;;;;;3.60;95.50;97809.61;103899;1311;26483;-87
2023/01/08 00:51:06;;;;;;;41.00;37.20;;;;;;;3.53;95.58;97801.57;104084;1307;24250;-87
2023/01/08 00:53:36;;;;;;;39.50;36.00;;;;;;;3.49;95.45;97801.48;103405;1311;22585;-88
2023/01/08 00:56:08;;;;;;;37.80;34.30;;;;;;;3.45;95.61;97803.36;103528;1307;23116;-86
2023/01/08 00:58:36;;;;;;;39.70;36.10;;;;;;;3.41;95.58;97801.20;103556;1307;25255;-86
2023/01/08 01:01:12;;;;;;;44.60;40.60;;;;;;;3.35;95.58;97800.42;103456;1313;26614;-86
2023/01/08 01:03:41;;;;;;;106.20;95.00;;;;;;;3.27;95.59;97798.70;103499;1313;25205;-87
2023/01/08 01:06:11;;;;;;;51.30;46.60;;;;;;;3.18;95.73;97801.02;103476;1309;23137;-87
2023/01/08 01:08:39;;;;;;;40.00;36.40;;;;;;;3.13;95.77;97805.45;103579;1313;22451;-88
2023/01/08 01:11:21;;;;;;;37.10;33.70;;;;;;;3.10;95.68;97806.55;103839;1301;23734;-87
2023/01/08 01:13:50;;;;;;;39.20;35.40;;;;;;;3.09;95.80;97810.63;103353;1313;22475;-87
2023/01/08 01:16:18;;;;;;;39.00;35.60;;;;;;;3.08;95.77;97810.30;103505;1299;22557;-87
2023/01/08 01:18:47;;;;;;;40.10;36.60;;;;;;;3.06;95.92;97806.29;103239;1314;22502;-87
2023/01/08 01:21:23;;;;;;;46.60;42.50;;;;;;;3.01;95.95;97809.80;103245;1313;22608;-87
2023/01/08 01:24:00;;;;;;;54.20;49.60;;;;;;;2.95;95.98;97802.52;103470;1314;24285;-87
2023/01/08 01:26:30;;;;;;;53.00;48.40;;;;;;;2.88;95.96;97803.77;103527;1307;22560;-86
2023/01/08 01:28:58;;;;;;;55.60;50.80;;;;;;;2.85;95.54;97801.78;103504;1313;24066;-86
2023/01/08 01:31:29;;;;;;;46.30;42.20;;;;;;;2.81;95.47;97802.16;103488;1303;22604;-87
2023/01/08 01:33:58;;;;;;;44.40;40.30;;;;;;;2.77;95.95;97796.37;103423;1312;22598;-87
2023/01/08 01:36:26;;;;;;;53.20;48.30;;;;;;;2.72;95.96;97795.90;103499;1311;22543;-87
2023/01/08 01:38:56;;;;;;;54.00;49.10;;;;;;;2.67;95.80;97790.63;103434;1312;22885;-87
2023/01/08 01:41:35;;;;;;;48.00;43.50;;;;;;;2.61;96.04;97785.57;103592;1312;22475;-87
2023/01/08 01:48:42;;;;;;;48.10;43.80;;;;;;;2.52;95.53;97772.06;103590;1310;22486;-88
2023/01/08 01:51:10;;;;;;;49.80;44.50;;;;;;;2.49;95.46;97772.52;103498;1310;25674;-85
2023/01/08 01:53:40;;;;;;;47.80;43.60;;;;;;;2.44;95.62;97768.24;103387;1305;22615;-87
2023/01/08 01:56:09;;;;;;;48.40;44.10;;;;;;;2.37;95.67;97767.64;103422;1310;22605;-86
2023/01/08 01:58:37;;;;;;;45.40;41.20;;;;;;;2.30;95.83;97763.83;103404;1310;22527;-86
2023/01/08 02:01:07;;;;;;;43.40;39.50;;;;;;;2.25;96.33;97759.42;103375;1310;22565;-85
2023/01/08 02:03:37;;;;;;;40.20;36.40;;;;;;;2.23;96.60;97750.92;103502;1310;22595;-86
2023/01/08 02:06:30;;;;;;;36.70;33.30;;;;;;;2.24;96.99;97746.01;103406;1313;22464;-91
2023/01/08 02:09:21;;;;;;;39.70;36.00;;;;;;;2.25;96.76;97744.69;103558;1310;25289;-87
2023/01/08 02:16:54;;;;;;;41.00;37.40;;;;;;;2.26;96.73;97741.36;103438;1310;22475;-84
2023/01/08 02:19:57;;;;;;;38.70;35.20;;;;;;;2.24;96.94;97737.98;103591;1310;22516;-86
2023/01/08 02:22:50;;;;;;;37.50;34.10;;;;;;;2.26;96.76;97736.30;103627;1310;24314;-86
2023/01/08 02:25:52;;;;;;;37.70;34.20;;;;;;;2.29;96.70;97731.92;103365;1309;22650;-87
2023/01/08 02:28:21;;;;;;;38.30;34.70;;;;;;;2.31;97.06;97730.35;103346;1311;23419;-86
2023/01/08 02:30:49;;;;;;;35.40;32.30;;;;;;;2.34;96.90;97734.27;103454;1312;22465;-87
2023/01/08 02:33:17;;;;;;;40.20;36.70;;;;;;;2.34;96.97;97741.76;103469;1311;22484;-87
2023/01/08 02:36:09;;;;;;;39.40;35.80;;;;;;;2.32;97.10;97742.47;103555;1310;23296;-88
2023/01/08 02:38:49;;;;;;;40.20;36.20;;;;;;;2.28;96.99;97739.62;103450;1305;23214;-90
2023/01/08 02:41:23;;;;;;;35.60;32.30;;;;;;;2.26;97.43;97742.38;103499;1311;24288;-85
2023/01/08 02:43:55;;;;;;;36.70;33.40;;;;;;;2.27;97.15;97738.66;103426;1310;24305;-85
2023/01/08 02:46:31;;;;;;;34.90;31.60;;;;;;;2.30;97.48;97741.19;103538;1310;22488;-85
2023/01/08 02:49:08;;;;;;;35.20;31.90;;;;;;;2.32;97.51;97746.27;103560;1309;22523;-87
2023/01/08 02:51:43;;;;;;;34.70;31.50;;;;;;;2.33;97.25;97749.89;103541;1310;25393;-86
2023/01/08 02:54:16;;;;;;;34.60;31.40;;;;;;;2.32;97.75;97746.84;103280;1310;24440;-86
2023/01/08 02:56:51;;;;;;;32.60;29.60;;;;;;;2.29;97.52;97743.56;103050;1307;22601;-87
2023/01/08 02:59:21;;;;;;;30.80;28.00;;;;;;;2.28;97.38;97736.38;103448;1310;22483;-86
2023/01/08 03:01:50;;;;;;;32.00;29.10;;;;;;;2.31;97.41;97732.90;103472;1310;22472;-87
2023/01/08 03:04:21;;;;;;;29.50;26.80;;;;;;;2.34;97.42;97728.68;103346;1309;22633;-87
2023/01/08 03:06:50;;;;;;;30.70;27.90;;;;;;;2.36;97.70;97721.48;103460;1310;22499;-86
2023/01/08 03:14:11;;;;;;;33.90;30.90;;;;;;;2.33;97.16;97721.44;103561;1309;22472;-87
2023/01/08 03:16:47;;;;;;;31.80;29.00;;;;;;;2.31;97.50;97727.48;103540;1310;22550;-86
2023/01/08 03:19:22;;;;;;;33.60;30.50;;;;;;;2.31;97.22;97720.77;103461;1309;22466;-87
2023/01/08 03:21:52;;;;;;;31.10;28.30;;;;;;;2.31;97.08;97716.78;103583;1300;22501;-87
2023/01/08 03:24:33;;;;;;;29.40;26.70;;;;;;;2.31;97.06;97711.36;103746;1309;23172;-87
2023/01/08 03:27:05;;;;;;;30.00;27.30;;;;;;;2.34;97.19;97711.60;103552;1300;22666;-86
2023/01/08 03:29:36;;;;;;;29.10;26.50;;;;;;;2.36;97.22;97709.82;103470;1309;22601;-85
2023/01/08 03:32:10;;;;;;;30.80;28.20;;;;;;;2.35;97.17;97706.25;103453;1310;24305;-88
2023/01/08 03:38:47;;;;;;;27.70;25.10;;;;;;;2.31;97.24;97694.94;103579;1310;22461;-88
2023/01/08 03:41:19;;;;;;;27.90;25.40;;;;;;;2.33;97.33;97696.34;103692;1312;22470;-87
2023/01/08 03:43:47;;;;;;;27.50;25.00;;;;;;;2.36;97.15;97699.61;104052;1309;24026;-88
2023/01/08 03:46:22;;;;;;;27.80;25.30;;;;;;;2.36;97.04;97701.26;103797;1310;22483;-87
2023/01/08 03:48:51;;;;;;;29.60;27.00;;;;;;;2.35;97.34;97693.48;103233;1288;24551;-89
2023/01/08 03:51:19;;;;;;;28.20;25.60;;;;;;;2.32;97.42;97688.29;103319;1309;22591;-87
2023/01/08 03:53:51;;;;;;;26.20;23.80;;;;;;;2.32;97.41;97685.36;103416;1301;22492;-87
2023/01/08 03:56:19;;;;;;;24.70;22.30;;;;;;;2.33;97.52;97680.01;103465;1300;24586;-87
2023/01/08 03:58:47;;;;;;;24.30;22.10;;;;;;;2.37;97.45;97677.87;103552;1309;22684;-86
2023/01/08 04:01:15;;;;;;;25.60;23.20;;;;;;;2.39;97.51;97679.91;103528;1310;22632;-86
2023/01/08 04:03:43;;;;;;;29.80;27.20;;;;;;;2.39;97.31;97676.93;103435;1309;22691;-85
2023/01/08 04:06:11;;;;;;;29.80;27.20;;;;;;;2.37;97.09;97676.02;103357;1310;22475;-86
2023/01/08 04:08:39;;;;;;;30.40;27.70;;;;;;;2.34;97.14;97678.42;103561;1310;22600;-86
2023/01/08 04:11:07;;;;;;;27.70;25.20;;;;;;;2.33;97.06;97680.71;103339;1309;22525;-86
2023/01/08 04:13:35;;;;;;;26.00;23.60;;;;;;;2.34;96.80;97685.92;103508;1310;22605;-86
2023/01/08 04:16:03;;;;;;;26.00;23.70;;;;;;;2.32;96.66;97680.38;103459;1309;22580;-86
2023/01/08 04:18:31;;;;;;;27.20;24.70;;;;;;;2.30;96.73;97680.36;103445;1309;22482;-86
2023/01/08 04:21:00;;;;;;;26.10;23.80;;;;;;;2.28;96.90;97673.95;103468;1304;23931;-87
2023/01/08 04:23:28;;;;;;;25.80;23.40;;;;;;;2.25;96.67;97667.23;103493;1311;23360;-86
2023/01/08 04:25:56;;;;;;;24.60;22.40;;;;;;;2.19;96.77;97667.20;103422;1310;24025;-86
2023/01/08 04:28:24;;;;;;;24.00;21.80;;;;;;;2.15;96.99;97671.53;103544;1307;22468;-85
2023/01/08 04:30:52;;;;;;;24.00;21.90;;;;;;;2.17;96.75;97668.62;103473;1310;22487;-84
2023/01/08 04:33:20;;;;;;;24.90;22.60;;;;;;;2.19;96.71;97668.64;103507;1309;22572;-86
2023/01/08 04:35:48;;;;;;;23.50;21.40;;;;;;;2.21;96.63;97669.52;103408;1310;23883;-87
2023/01/08 04:38:17;;;;;;;24.40;22.20;;;;;;;2.22;96.64;97670.11;103455;1309;25457;-84
2023/01/08 04:40:45;;;;;;;23.80;21.80;;;;;;;2.19;96.46;97672.73;103447;1309;22478;-86
2023/01/08 04:43:13;;;;;;;24.50;22.30;;;;;;;2.15;96.51;97673.77;103480;1309;22476;-86
2023/01/08 04:45:41;;;;;;;23.50;21.30;;;;;;;2.12;96.54;97671.18;103538;1310;23883;-87
2023/01/08 04:48:09;;;;;;;22.00;19.90;;;;;;;2.14;96.70;97678.23;103501;1309;25329;-86
2023/01/08 04:50:37;;;;;;;21.40;19.50;;;;;;;2.16;96.61;97677.02;103609;1310;25681;-86
2023/01/08 04:53:05;;;;;;;23.10;21.10;;;;;;;2.15;96.47;97674.72;103563;1310;25323;-86
2023/01/08 04:55:33;;;;;;;24.60;22.40;;;;;;;2.13;96.55;97673.57;104024;1301;22502;-87
2023/01/08 04:58:01;;;;;;;23.20;21.10;;;;;;;2.09;96.26;97673.59;106410;1302;22519;-87
2023/01/08 05:00:29;;;;;;;23.50;21.30;;;;;;;2.02;96.51;97675.33;106243;1306;22211;-88
2023/01/08 05:03:00;;;;;;;23.50;21.40;;;;;;;1.96;96.27;97672.27;106913;1303;21990;-89
2023/01/08 05:05:29;;;;;;;23.20;21.10;;;;;;;1.97;96.35;97664.46;105591;1309;22479;-88
2023/01/08 05:07:57;;;;;;;23.30;21.30;;;;;;;1.98;96.15;97659.66;103565;1310;23248;-90
2023/01/08 05:14:38;;;;;;;24.10;22.00;;;;;;;1.87;96.39;97641.58;103601;1309;25697;-86
2023/01/08 05:17:06;;;;;;;22.50;20.50;;;;;;;1.85;96.62;97638.77;103678;1309;24845;-90
2023/01/08 05:19:34;;;;;;;22.30;20.20;;;;;;;1.85;96.51;97641.06;103720;1309;22536;-87
2023/01/08 05:22:05;;;;;;;21.50;19.50;;;;;;;1.86;96.53;97633.64;103387;1309;25372;-86
2023/01/08 05:24:33;;;;;;;21.50;19.60;;;;;;;1.88;96.47;97632.75;103602;1307;25330;-85
2023/01/08 05:31:48;;;;;;;26.80;24.10;;;;;;;1.85;96.73;97622.73;103512;1286;24414;-85
2023/01/08 05:34:16;;;;;;;24.10;21.80;;;;;;;1.82;96.60;97629.82;103514;1309;23637;-87
2023/01/08 05:36:44;;;;;;;25.40;23.20;;;;;;;1.83;96.49;97636.85;103500;1309;22541;-87
2023/01/08 05:43:01;;;;;;;25.50;23.20;;;;;;;1.85;96.49;97643.98;103479;1309;25459;-84
2023/01/08 05:49:15;;;;;;;28.20;25.60;;;;;;;1.80;96.24;97637.73;103371;1309;24757;-85
2023/01/08 05:51:43;;;;;;;28.50;25.80;;;;;;;1.75;96.14;97641.70;103602;1310;22629;-85
2023/01/08 05:54:11;;;;;;;25.70;23.40;;;;;;;1.70;96.33;97641.10;103342;1310;22544;-85
2023/01/08 05:56:42;;;;;;;27.20;24.80;;;;;;;1.69;96.39;97642.16;103346;1309;22650;-85
2023/01/08 06:03:58;;;;;;;33.40;30.60;;;;;;;1.64;96.13;97630.52;103513;1309;22595;-85
2023/01/08 06:06:26;;;;;;;34.20;31.30;;;;;;;1.61;96.26;97633.08;103466;1309;22580;-85
2023/01/08 06:08:54;;;;;;;35.40;32.10;;;;;;;1.55;96.08;97635.23;103495;1309;25421;-85
2023/01/08 06:11:22;;;;;;;29.70;27.00;;;;;;;1.50;96.02;97626.73;103230;1303;25328;-84
2023/01/08 06:13:50;;;;;;;29.50;26.90;;;;;;;1.49;96.06;97619.06;103439;1308;22535;-84
2023/01/08 06:16:19;;;;;;;28.40;25.90;;;;;;;1.49;95.92;97621.52;103528;1309;22521;-85
2023/01/08 06:18:47;;;;;;;32.90;30.10;;;;;;;1.46;96.09;97623.34;103336;1309;25252;-84
2023/01/08 06:21:15;;;;;;;32.40;29.50;;;;;;;1.43;96.00;97627.77;103411;1310;22752;-84
2023/01/08 06:23:43;;;;;;;33.10;30.20;;;;;;;1.41;96.29;97622.46;103447;1310;22623;-85
2023/01/08 06:26:11;;;;;;;38.20;34.80;;;;;;;1.38;96.22;97622.34;103469;1310;24294;-86
2023/01/08 06:28:39;;;;;;;42.50;38.50;;;;;;;1.36;96.10;97627.30;103346;1298;25402;-84
2023/01/08 06:31:07;;;;;;;39.50;35.60;;;;;;;1.36;96.00;97628.77;103481;1309;22741;-85
2023/01/08 06:33:35;;;;;;;35.90;32.30;;;;;;;1.36;95.77;97622.42;103435;1310;25360;-85
2023/01/08 06:36:04;;;;;;;40.60;36.70;;;;;;;1.33;95.81;97626.77;103438;1303;26506;-84
2023/01/08 06:38:33;;;;;;;36.40;33.00;;;;;;;1.28;95.68;97629.23;103484;1309;24407;-84
2023/01/08 06:41:03;;;;;;;39.00;35.60;;;;;;;1.23;95.77;97625.44;103488;1308;22482;-84
2023/01/08 06:43:33;;;;;;;34.40;31.30;;;;;;;1.19;95.83;97624.04;103385;1307;22777;-84
2023/01/08 06:46:07;;;;;;;34.50;31.40;;;;;;;1.13;95.78;97622.11;103499;1310;22598;-84
2023/01/08 06:48:36;;;;;;;34.70;31.40;;;;;;;1.08;95.79;97626.44;103470;1309;22552;-85
2023/01/08 06:51:05;;;;;;;37.80;34.40;;;;;;;1.06;95.69;97629.60;103457;1309;25308;-84
2023/01/08 06:53:33;;;;;;;36.30;33.00;;;;;;;1.07;95.77;97626.06;103389;1312;24353;-86
2023/01/08 06:56:03;;;;;;;39.10;35.60;;;;;;;1.08;95.95;97626.48;103823;1310;25550;-86
2023/01/08 06:58:31;;;;;;;39.30;35.70;;;;;;;1.04;95.81;97629.08;103600;1311;22483;-87
2023/01/08 07:00:59;;;;;;;39.70;36.20;;;;;;;0.99;95.99;97625.83;103608;1286;25292;-84
2023/01/08 07:03:28;;;;;;;32.80;29.90;;;;;;;0.99;96.12;97621.95;103622;1309;22618;-85
2023/01/08 07:05:56;;;;;;;31.50;28.70;;;;;;;1.02;96.26;97611.34;103459;1288;25263;-83
2023/01/08 07:08:24;;;;;;;29.80;27.00;;;;;;;1.07;96.20;97608.17;103481;1309;22599;-82
2023/01/08 07:10:53;;;;;;;25.30;23.00;;;;;;;1.13;96.36;97611.28;103408;1308;25457;-82
2023/01/08 07:13:22;;;;;;;25.30;23.00;;;;;;;1.14;96.06;97611.18;103509;1309;22481;-82
2023/01/08 07:15:50;;;;;;;25.30;23.00;;;;;;;1.14;96.56;97609.12;103538;1309;24254;-82
2023/01/08 07:18:18;;;;;;;26.70;24.40;;;;;;;1.20;96.44;97607.65;103394;1309;22568;-82
2023/01/08 07:20:49;;;;;;;26.60;24.10;;;;;;;1.24;96.75;97603.98;103374;1309;25587;-84
2023/01/08 07:23:17;;;;;;;27.80;25.10;;;;;;;1.30;96.63;97609.59;103517;1295;25548;-84
2023/01/08 07:25:46;;;;;;;30.80;28.00;;;;;;;1.37;96.66;97604.65;103487;1309;22648;-83
2023/01/08 07:28:14;;;;;;;28.10;25.60;;;;;;;1.45;96.49;97597.25;103400;1309;22483;-83
2023/01/08 07:30:43;;;;;;;32.00;29.20;;;;;;;1.51;96.58;97600.05;103419;1310;24070;-82
2023/01/08 07:33:11;;;;;;;33.90;31.10;;;;;;;1.58;96.69;97600.48;103354;1309;24346;-81
2023/01/08 07:35:39;;;;;;;32.70;29.80;;;;;;;1.61;96.85;97598.29;103213;1294;163082;-82
2023/01/08 07:38:07;;;;;;;31.30;28.60;;;;;;;1.63;96.91;97601.14;103241;1308;22686;-84
2023/01/08 07:40:35;;;;;;;30.70;28.10;;;;;;;1.69;97.03;97594.71;103290;1309;22522;-83
2023/01/08 07:43:06;;;;;;;30.10;27.50;;;;;;;1.76;97.01;97591.71;103436;1309;25261;-84
2023/01/08 07:45:34;;;;;;;28.60;26.00;;;;;;;1.84;97.14;97596.58;103482;1309;22588;-83
2023/01/08 07:48:02;;;;;;;31.30;28.50;;;;;;;1.93;97.18;97596.84;103501;1298;25509;-83
2023/01/08 07:50:31;;;;;;;32.80;30.00;;;;;;;2.01;97.07;97587.52;103470;1310;23938;-83
2023/01/08 07:53:00;;;;;;;33.40;30.40;;;;;;;2.08;97.20;97586.63;103512;1308;25450;-83
2023/01/08 07:55:30;;;;;;;31.90;29.00;;;;;;;2.13;97.25;97582.05;103554;1308;24336;-83
2023/01/08 07:57:58;;;;;;;32.40;29.50;;;;;;;2.20;97.23;97584.88;103574;1310;22587;-81
2023/01/08 08:00:26;;;;;;;48.00;32.10;;;;;;;2.27;97.28;97577.23;104382;1288;22436;-83
2023/01/08 08:02:54;;;;;;;41.50;37.70;;;;;;;2.36;97.28;97567.47;104753;1309;22422;-83
2023/01/08 08:05:22;;;;;;;51.50;46.50;;;;;;;2.45;97.54;97560.63;104274;1310;22499;-83
2023/01/08 08:07:50;;;;;;;40.60;37.00;;;;;;;2.53;97.75;97561.70;104414;1309;22709;-84
2023/01/08 08:10:18;;;;;;;29.50;27.00;;;;;;;2.60;97.95;97560.25;104735;1304;22542;-83
2023/01/08 08:12:46;;;;;;;29.60;27.00;;;;;;;2.67;97.39;97562.75;104861;1310;23781;-84
2023/01/08 08:15:14;;;;;;;27.70;25.40;;;;;;;2.75;97.52;97556.04;105001;1309;24305;-83
2023/01/08 08:17:47;;;;;;;27.50;25.10;;;;;;;2.84;97.59;97549.76;104871;1306;22429;-84
2023/01/08 08:20:15;;;;;;;25.90;23.60;;;;;;;2.94;97.42;97542.33;105015;1308;22468;-84
2023/01/08 08:22:44;;;;;;;28.90;26.50;;;;;;;3.02;97.67;97538.48;104937;1312;24243;-85
2023/01/08 08:25:15;;;;;;;28.50;25.90;;;;;;;3.10;97.38;97541.34;104865;1309;22738;-84
2023/01/08 08:27:44;;;;;;;27.90;25.40;;;;;;;3.16;97.45;97535.67;104446;1304;22433;-84
2023/01/08 08:30:12;;;;;;;28.10;25.70;;;;;;;3.25;97.38;97537.91;104793;1306;22503;-84
2023/01/08 08:32:40;;;;;;;28.70;26.20;;;;;;;3.36;97.33;97533.94;104584;1309;22514;-84
2023/01/08 08:35:09;;;;;;;28.60;26.30;;;;;;;3.45;97.20;97537.33;104441;1309;22524;-83
2023/01/08 08:37:37;;;;;;;27.60;25.10;;;;;;;3.52;97.22;97536.28;104302;1310;22500;-85
2023/01/08 08:40:05;;;;;;;27.50;25.00;;;;;;;3.57;96.99;97533.16;103612;1310;22466;-85
2023/01/08 08:42:34;;;;;;;25.10;22.90;;;;;;;3.60;96.78;97528.70;103767;1309;22551;-83
2023/01/08 08:45:02;;;;;;;27.20;24.80;;;;;;;3.62;96.63;97526.36;103629;1310;25264;-83
2023/01/08 08:48:06;;;;;;;25.80;23.60;;;;;;;3.66;96.60;97526.10;103695;1294;22510;-89
2023/01/08 08:50:34;;;;;;;25.40;23.20;;;;;;;3.70;96.57;97527.92;103605;1308;23871;-83
2023/01/08 08:53:05;;;;;;;22.60;20.70;;;;;;;3.76;96.64;97534.43;103354;1310;24367;-82
2023/01/08 08:55:33;;;;;;;25.90;23.70;;;;;;;3.83;96.70;97534.45;103341;1296;22632;-83
2023/01/08 08:58:04;;;;;;;28.00;25.70;;;;;;;3.90;96.49;97536.00;103532;1288;25379;-83
2023/01/08 09:00:32;;;;;;;29.40;26.90;;;;;;;3.94;96.36;97529.84;103505;1302;22867;-83
2023/01/08 09:03:00;;;;;;;31.40;28.80;;;;;;;3.96;96.78;97531.00;103444;1310;25431;-83
2023/01/08 09:05:29;;;;;;;33.30;30.40;;;;;;;3.99;96.46;97528.66;103483;1303;22636;-83
2023/01/08 09:07:57;;;;;;;28.10;25.60;;;;;;;4.04;96.31;97530.96;103509;1310;22853;-83
2023/01/08 09:10:25;;;;;;;25.90;23.60;;;;;;;4.06;96.37;97527.29;103511;1301;22561;-83
2023/01/08 09:12:53;;;;;;;23.50;21.40;;;;;;;4.10;96.12;97529.00;103547;1302;22504;-83
2023/01/08 09:15:21;;;;;;;24.90;22.60;;;;;;;4.12;95.88;97526.17;103472;1310;24190;-83
2023/01/08 09:17:55;;;;;;;24.80;22.60;;;;;;;4.13;95.83;97523.72;103554;1309;24945;-82
2023/01/08 09:20:25;;;;;;;25.40;23.20;;;;;;;4.14;96.13;97519.72;103594;1306;22527;-83
2023/01/08 09:22:53;;;;;;;27.20;24.90;;;;;;;4.14;95.71;97517.84;103601;1302;23917;-84
2023/01/08 09:25:21;;;;;;;25.80;23.40;;;;;;;4.10;95.62;97518.17;103494;1310;25334;-84
2023/01/08 09:27:58;;;;;;;26.50;24.20;;;;;;;4.09;95.68;97522.65;103515;1309;25767;-85
2023/01/08 09:30:26;;;;;;;28.30;25.90;;;;;;;4.12;95.31;97518.71;103368;1310;22588;-84
2023/01/08 09:32:58;;;;;;;29.40;26.90;;;;;;;4.11;95.23;97512.79;103541;1289;25261;-84
2023/01/08 09:35:30;;;;;;;27.60;25.30;;;;;;;4.10;95.25;97500.52;103557;1309;22596;-84
2023/01/08 09:37:59;;;;;;;29.10;26.60;;;;;;;4.08;95.03;97499.30;103437;1309;22484;-84
2023/01/08 09:40:54;;;;;;;27.70;25.40;;;;;;;4.06;95.14;97489.59;103481;1310;22514;-83
2023/01/08 09:43:24;;;;;;;28.80;26.40;;;;;;;4.05;95.30;97483.19;103428;1309;24338;-85
2023/01/08 09:45:59;;;;;;;27.30;25.00;;;;;;;4.07;95.35;97477.33;103405;1309;25423;-83
2023/01/08 09:48:30;;;;;;;26.20;23.90;;;;;;;4.10;95.12;97471.46;103494;1309;24343;-83
2023/01/08 09:50:58;;;;;;;29.20;26.40;;;;;;;4.12;94.86;97466.54;103564;1298;25573;-83
2023/01/08 09:53:27;;;;;;;30.90;28.20;;;;;;;4.11;94.87;97466.75;103512;1310;25344;-84
2023/01/08 09:55:59;;;;;;;29.70;27.10;;;;;;;4.10;94.56;97460.20;103230;1307;22595;-83
2023/01/08 09:58:45;;;;;;;29.60;27.00;;;;;;;4.08;94.38;97452.69;103398;1309;22620;-84
2023/01/08 10:01:15;;;;;;;28.90;26.40;;;;;;;4.07;94.10;97445.97;103443;1303;22491;-83
2023/01/08 10:03:51;;;;;;;27.10;24.70;;;;;;;4.11;94.45;97441.33;103574;1287;25292;-84
2023/01/08 10:06:23;;;;;;;25.80;23.50;;;;;;;4.16;93.95;97436.25;103448;1295;22636;-87
2023/01/08 10:08:51;;;;;;;27.50;25.10;;;;;;;4.23;94.10;97431.71;103298;1309;24727;-87
2023/01/08 10:11:20;;;;;;;25.90;23.70;;;;;;;4.30;94.02;97423.70;103231;1309;22494;-87
2023/01/08 10:13:55;;;;;;;25.30;23.20;;;;;;;4.38;93.82;97415.20;103085;1309;24239;-87
2023/01/08 10:16:32;;;;;;;;;;;;;;;4.42;94.01;97410.56;103336;1309;22589;-87
2023/01/08 10:19:52;;;;;;;22.60;20.60;;;;;;;4.43;93.46;97405.70;103191;1309;25739;-88
2023/01/08 10:22:23;;;;;;;26.30;24.10;;;;;;;4.42;92.58;97399.52;103223;1310;22483;-88
2023/01/08 10:24:52;;;;;;;22.20;20.20;;;;;;;4.44;92.90;97398.50;103408;1312;23111;-89
2023/01/08 10:27:22;;;;;;;22.30;20.40;;;;;;;4.47;92.75;97400.52;103457;1309;22491;-88
2023/01/08 10:29:52;;;;;;;23.70;21.50;;;;;;;4.48;92.94;97390.96;103698;1308;22850;-88
2023/01/08 10:32:33;;;;;;;25.00;22.70;;;;;;;4.48;92.42;97384.50;104548;1309;24321;-89
2023/01/08 10:35:06;;;;;;;25.00;22.80;;;;;;;4.53;93.11;97382.63;103360;1310;25274;-86
2023/01/08 10:37:43;;;;;;;23.60;21.40;;;;;;;4.65;92.64;97380.71;103676;1308;22564;-87
2023/01/08 10:40:41;;;;;;;22.80;20.90;;;;;;;4.73;92.63;97371.17;103853;1309;25217;-86
2023/01/08 10:43:36;;;;;;;22.80;20.80;;;;;;;4.82;92.55;97367.88;105309;1307;22510;-87
2023/01/08 10:46:07;;;;;;;;;;;;;;;4.88;92.65;97363.70;106544;1310;22533;-88
2023/01/08 10:48:47;;;;;;;21.90;19.80;;;;;;;4.98;92.95;97361.51;106311;1309;22477;-89
2023/01/08 10:51:19;;;;;;;22.60;20.60;;;;;;;5.12;92.80;97361.74;104351;1309;26602;-86
2023/01/08 10:53:47;;;;;;;20.10;18.30;;;;;;;5.26;93.00;97358.51;104469;1309;22465;-88
2023/01/08 10:56:19;;;;;;;19.10;17.30;;;;;;;5.43;92.33;97359.29;104105;1296;22425;-87
2023/01/08 10:58:49;;;;;;;19.50;17.80;;;;;;;5.59;92.23;97356.19;104186;1295;22551;-91
2023/01/08 11:01:22;;;;;;;16.40;15.00;;;;;;;5.67;91.90;97355.90;104177;1301;22420;-91
2023/01/08 11:03:58;;;;;;;19.40;17.70;;;;;;;5.72;91.73;97348.86;104300;1309;23879;-91
2023/01/08 11:06:32;;;;;;;17.60;16.00;;;;;;;5.71;91.36;97345.45;103817;1309;25367;-88
2023/01/08 11:09:12;;;;;;;18.00;16.40;;;;;;;5.70;91.20;97349.36;103531;1310;22485;-89
2023/01/08 11:15:40;;;;;;;17.30;15.70;;;;;;;5.66;90.53;97346.92;103550;1309;22475;-91
2023/01/08 11:18:20;;;;;;;16.70;15.20;;;;;;;5.73;90.80;97343.08;103629;1304;22747;-89
2023/01/08 11:21:46;;;;;;;18.90;17.20;;;;;;;5.80;91.02;97343.98;103779;1309;23852;-91
2023/01/08 11:24:20;;;;;;;20.30;18.30;;;;;;;5.87;90.47;97342.73;103603;1308;23884;-90
2023/01/08 11:26:52;;;;;;;20.20;18.40;;;;;;;5.87;90.15;97335.64;104347;1308;22483;-90
2023/01/08 11:29:56;;;;;;;19.60;17.90;;;;;;;5.94;89.79;97342.60;104464;1309;22472;-87
2023/01/08 11:32:33;;;;;;;20.20;18.40;;;;;;;6.09;89.80;97347.86;104950;1309;22419;-90
2023/01/08 11:35:12;;;;;;;26.50;24.10;;;;;;;6.15;90.23;97343.04;106294;1283;22805;-89
2023/01/08 11:38:07;;;;;;;21.30;19.20;;;;;;;6.31;90.30;97338.16;105954;1307;22487;-89
2023/01/08 11:40:53;;;;;;;19.20;17.40;;;;;;;6.70;91.04;97334.64;105889;1306;22416;-91
2023/01/08 11:43:40;;;;;;;17.50;15.80;;;;;;;7.52;90.65;97332.64;105073;1306;22728;-92
2023/01/08 11:46:47;;;;;;;18.00;16.50;;;;;;;8.34;90.00;97327.36;104259;1306;22477;-88
2023/01/08 11:49:34;;;;;;;18.00;16.30;;;;;;;8.93;89.13;97318.67;103282;1306;22512;-87
2023/01/08 11:52:16;;;;;;;21.70;19.70;;;;;;;9.50;88.16;97315.70;103546;1306;22493;-86
2023/01/08 11:55:09;;;;;;;18.30;16.50;;;;;;;9.98;86.81;97310.74;103700;1306;23156;-88
2023/01/08 11:58:12;;;;;;;19.10;17.20;;;;;;;10.47;87.89;97301.06;103753;1302;22470;-87
2023/01/08 12:01:19;;;;;;;18.50;16.70;;;;;;;10.99;87.56;97298.63;103157;1317;24264;-88
2023/01/08 12:04:12;;;;;;;16.70;15.10;;;;;;;10.98;87.37;97295.02;103182;1315;25424;-89
2023/01/08 12:06:59;;;;;;;17.40;15.80;;;;;;;10.69;87.23;97292.79;102978;1315;25379;-89
2023/01/08 12:09:40;;;;;;;14.90;13.50;;;;;;;10.70;85.99;97291.04;103132;1314;25270;-89
2023/01/08 12:12:36;;;;;;;13.70;12.40;;;;;;;10.78;84.87;97283.39;103023;1314;22473;-87
2023/01/08 12:15:25;;;;;;;13.90;12.60;;;;;;;11.21;85.09;97286.05;103021;1314;25311;-88
2023/01/08 12:18:05;;;;;;;15.80;14.30;;;;;;;11.84;84.09;97283.23;102965;1314;22570;-86
2023/01/08 12:20:42;;;;;;;16.40;14.90;;;;;;;12.52;84.42;97278.27;103328;1313;23318;-88
2023/01/08 12:23:41;;;;;;;14.80;13.20;;;;;;;13.03;83.37;97272.71;103168;1314;22638;-89
2023/01/08 12:26:31;;;;;;;15.50;14.00;;;;;;;13.52;82.38;97271.42;103513;1313;24276;-88